createdAt,value
2023-01-26T00:00:59.944Z,90.53
2023-01-26T00:03:31.131Z,94.07
2023-01-26T00:06:06.432Z,92.40
2023-01-26T00:08:39.524Z,89.23
2023-01-26T00:11:10.850Z,96.57
2023-01-26T00:13:43.463Z,93.63
2023-01-26T00:16:15.224Z,83.97
2023-01-26T00:18:46.108Z,79.17
2023-01-26T00:21:19.114Z,87.47
2023-01-26T00:23:50.223Z,97.37
2023-01-26T00:26:22.029Z,100.20
2023-01-26T00:28:54.721Z,102.23
2023-01-26T00:31:26.967Z,99.93
2023-01-26T00:33:58.126Z,90.93
2023-01-26T00:36:28.552Z,87.63
2023-01-26T00:38:59.243Z,97.43
2023-01-26T00:41:41.325Z,99.93
2023-01-26T00:44:13.777Z,100.87
2023-01-26T00:46:43.623Z,98.80
2023-01-26T00:49:13.391Z,105.43
2023-01-26T00:51:43.155Z,106.73
2023-01-26T00:54:13.104Z,90.40
2023-01-26T00:56:43.064Z,94.30
2023-01-26T00:59:15.741Z,90.77
2023-01-26T01:01:45.472Z,95.60
2023-01-26T01:04:15.207Z,97.33
2023-01-26T01:06:45.219Z,96.83
2023-01-26T01:09:15.758Z,84.23
2023-01-26T01:11:45.920Z,89.57
2023-01-26T01:14:18.953Z,91.23
2023-01-26T01:16:49.071Z,90.70
2023-01-26T01:19:23.024Z,103.47
2023-01-26T01:21:52.884Z,81.83
2023-01-26T01:24:23.039Z,80.70
2023-01-26T01:26:52.912Z,79.13
2023-01-26T01:29:25.284Z,87.47
2023-01-26T01:31:55.299Z,95.90
2023-01-26T01:34:25.196Z,95.40
2023-01-26T01:36:55.111Z,87.43
2023-01-26T01:39:24.803Z,78.27
2023-01-26T01:41:54.515Z,92.73
2023-01-26T01:44:28.962Z,84.17
2023-01-26T01:47:01.240Z,64.93
2023-01-26T01:49:34.839Z,75.53
2023-01-26T01:52:13.817Z,86.20
2023-01-26T01:54:48.975Z,83.73
2023-01-26T01:57:28.663Z,73.50
2023-01-26T02:00:07.008Z,71.90
2023-01-26T02:02:37.482Z,79.10
2023-01-26T02:05:16.772Z,81.00
2023-01-26T02:07:47.017Z,71.60
2023-01-26T02:10:22.959Z,75.97
2023-01-26T02:13:00.815Z,81.27
2023-01-26T02:15:33.617Z,76.13
2023-01-26T02:18:06.387Z,64.83
2023-01-26T02:20:44.426Z,76.40
2023-01-26T02:23:26.382Z,65.23
2023-01-26T02:26:08.582Z,78.37
2023-01-26T02:28:38.344Z,77.73
2023-01-26T02:31:09.113Z,63.73
2023-01-26T02:33:41.305Z,72.53
2023-01-26T02:36:19.565Z,69.50
2023-01-26T02:38:58.803Z,65.87
2023-01-26T02:41:43.875Z,68.07
2023-01-26T02:44:15.666Z,67.13
2023-01-26T02:46:45.722Z,59.40
2023-01-26T02:49:27.786Z,72.83
2023-01-26T02:51:57.591Z,74.10
2023-01-26T02:54:54.322Z,71.67
2023-01-26T02:57:27.406Z,74.33
2023-01-26T02:59:59.985Z,70.83
2023-01-26T03:02:30.178Z,80.53
2023-01-26T03:05:00.175Z,75.37
2023-01-26T03:07:29.975Z,75.17
2023-01-26T03:10:00.073Z,68.10
2023-01-26T03:12:32.513Z,70.50
2023-01-26T03:15:14.711Z,66.97
2023-01-26T03:17:44.596Z,67.73
2023-01-26T03:20:27.466Z,71.40
2023-01-26T03:23:09.376Z,78.77
2023-01-26T03:25:52.655Z,71.40
2023-01-26T03:28:25.281Z,61.80
2023-01-26T03:30:57.229Z,72.13
2023-01-26T03:33:27.291Z,73.60
2023-01-26T03:35:58.107Z,80.57
2023-01-26T03:38:27.981Z,71.03
2023-01-26T03:41:13.426Z,77.83
2023-01-26T03:43:58.161Z,77.67
2023-01-26T03:46:40.361Z,69.10
2023-01-26T03:49:25.536Z,72.97
2023-01-26T03:52:07.644Z,77.60
2023-01-26T03:54:49.800Z,75.73
2023-01-26T03:57:19.496Z,81.90
2023-01-26T03:59:51.859Z,69.70
2023-01-26T04:02:34.347Z,70.70
2023-01-26T04:05:16.799Z,58.80
2023-01-26T04:07:59.144Z,73.27
2023-01-26T04:10:29.966Z,71.03
2023-01-26T04:13:12.163Z,66.33
2023-01-26T04:15:57.110Z,66.03
2023-01-26T04:18:39.243Z,64.17
2023-01-26T04:21:22.182Z,69.00
2023-01-26T04:23:51.976Z,73.07
2023-01-26T04:26:21.700Z,72.47
2023-01-26T04:28:51.412Z,65.57
2023-01-26T04:31:23.994Z,70.97
2023-01-26T04:33:54.001Z,69.03
2023-01-26T04:36:23.777Z,66.03
2023-01-26T04:38:53.473Z,66.60
2023-01-26T04:41:23.467Z,75.30
2023-01-26T04:43:53.207Z,67.47
2023-01-26T04:46:25.835Z,59.73
2023-01-26T04:48:55.801Z,61.50
2023-01-26T04:51:26.177Z,67.80
2023-01-26T04:53:55.947Z,60.50
2023-01-26T04:56:28.092Z,54.30
2023-01-26T04:58:58.471Z,58.63
2023-01-26T05:01:31.578Z,63.90
2023-01-26T05:04:03.122Z,59.27
2023-01-26T05:06:33.126Z,64.43
2023-01-26T05:09:02.984Z,61.57
2023-01-26T05:11:32.795Z,62.57
2023-01-26T05:14:02.861Z,68.67
2023-01-26T05:16:35.216Z,60.53
2023-01-26T05:19:05.159Z,59.07
2023-01-26T05:21:34.932Z,69.50
2023-01-26T05:24:04.850Z,60.23
2023-01-26T05:26:34.734Z,64.77
2023-01-26T05:29:04.416Z,72.10
2023-01-26T05:31:36.812Z,66.20
2023-01-26T05:34:06.604Z,64.27
2023-01-26T05:36:36.284Z,65.30
2023-01-26T05:39:06.158Z,64.33
2023-01-26T05:41:35.866Z,66.53
2023-01-26T05:44:05.550Z,47.63
2023-01-26T05:46:37.857Z,57.97
2023-01-26T05:49:07.561Z,62.40
2023-01-26T05:51:37.300Z,52.97
2023-01-26T05:54:07.685Z,54.77
2023-01-26T05:56:37.504Z,59.27
2023-01-26T05:59:07.257Z,54.83
2023-01-26T06:01:39.929Z,53.53
2023-01-26T06:04:09.978Z,56.83
2023-01-26T06:06:39.743Z,47.43
2023-01-26T06:09:09.522Z,48.77
2023-01-26T06:11:39.442Z,60.17
2023-01-26T06:14:09.165Z,54.57
2023-01-26T06:16:41.775Z,50.10
2023-01-26T06:19:13.698Z,50.83
2023-01-26T06:21:43.671Z,50.83
2023-01-26T06:24:13.596Z,55.43
2023-01-26T06:26:43.652Z,50.30
2023-01-26T06:29:13.913Z,50.50
2023-01-26T06:31:46.443Z,51.47
2023-01-26T06:34:16.205Z,44.60
2023-01-26T06:36:46.030Z,47.43
2023-01-26T06:39:17.126Z,46.70
2023-01-26T06:41:47.315Z,41.23
2023-01-26T06:44:16.999Z,43.40
2023-01-26T06:46:49.410Z,44.57
2023-01-26T06:49:19.519Z,43.00
2023-01-26T06:51:55.948Z,42.73
2023-01-26T06:54:28.431Z,48.23
2023-01-26T06:56:58.090Z,45.33
2023-01-26T06:59:28.003Z,44.10
2023-01-26T07:02:00.341Z,42.07
2023-01-26T07:04:30.165Z,41.43
2023-01-26T07:07:00.189Z,46.20
2023-01-26T07:09:30.809Z,46.53
2023-01-26T07:12:00.803Z,48.70
2023-01-26T07:14:30.654Z,41.30
2023-01-26T07:17:03.057Z,45.57
2023-01-26T07:19:34.031Z,43.97
2023-01-26T07:22:03.983Z,44.67
2023-01-26T07:24:33.913Z,44.90
2023-01-26T07:27:03.678Z,43.07
2023-01-26T07:29:33.409Z,41.60
2023-01-26T07:32:05.813Z,39.43
2023-01-26T07:34:36.336Z,43.83
2023-01-26T07:37:06.102Z,41.17
2023-01-26T07:39:35.903Z,44.33
2023-01-26T07:42:05.613Z,44.37
2023-01-26T07:44:35.420Z,44.93
2023-01-26T07:47:08.004Z,44.17
2023-01-26T07:49:37.772Z,45.07
2023-01-26T07:52:08.839Z,46.33
2023-01-26T07:54:38.575Z,43.23
2023-01-26T07:57:09.713Z,42.33
2023-01-26T07:59:39.558Z,39.57
2023-01-26T08:02:12.554Z,39.93
2023-01-26T08:04:42.265Z,45.83
2023-01-26T08:07:11.959Z,51.60
2023-01-26T08:09:41.773Z,45.67
2023-01-26T08:12:11.629Z,51.93
2023-01-26T08:14:46.999Z,48.43
2023-01-26T08:17:20.120Z,42.63
2023-01-26T08:19:50.133Z,50.37
2023-01-26T08:22:19.867Z,47.23
2023-01-26T08:24:49.672Z,46.10
2023-01-26T08:27:19.457Z,47.37
2023-01-26T08:29:49.424Z,49.70
2023-01-26T08:32:21.806Z,46.27
2023-01-26T08:34:51.557Z,46.73
2023-01-26T08:37:21.474Z,50.07
2023-01-26T08:39:51.297Z,51.30
2023-01-26T08:42:22.698Z,52.57
2023-01-26T08:44:54.946Z,49.97
2023-01-26T08:47:27.394Z,54.03
2023-01-26T08:49:57.109Z,53.50
2023-01-26T08:52:27.216Z,58.27
2023-01-26T08:54:58.779Z,55.67
2023-01-26T08:57:28.532Z,55.43
2023-01-26T08:59:58.395Z,54.63
2023-01-26T09:02:30.993Z,48.23
2023-01-26T09:05:00.819Z,53.50
2023-01-26T09:07:30.889Z,54.53
2023-01-26T09:10:00.601Z,56.07
2023-01-26T09:12:30.751Z,52.87
2023-01-26T09:15:00.472Z,50.87
2023-01-26T09:17:32.845Z,56.37
2023-01-26T09:20:02.647Z,49.27
2023-01-26T09:22:32.617Z,55.57
2023-01-26T09:25:02.357Z,45.77
2023-01-26T09:27:32.167Z,41.47
2023-01-26T09:30:02.257Z,41.67
2023-01-26T09:32:34.614Z,36.60
2023-01-26T09:35:04.458Z,39.10
2023-01-26T09:37:35.022Z,43.80
2023-01-26T09:40:04.740Z,41.77
2023-01-26T09:43:01.815Z,47.30
2023-01-26T09:45:38.577Z,41.27
2023-01-26T09:48:37.069Z,38.97
2023-01-26T09:51:13.535Z,42.87
2023-01-26T09:53:49.549Z,50.63
2023-01-26T09:56:21.763Z,36.67
2023-01-26T09:58:58.055Z,39.50
2023-01-26T10:01:34.717Z,187.33
2023-01-26T10:04:13.523Z,36.20
2023-01-26T10:06:44.957Z,32.63
2023-01-26T10:09:20.302Z,33.27
2023-01-26T10:11:54.361Z,34.57
2023-01-26T10:14:34.258Z,38.17
2023-01-26T10:17:06.219Z,34.53
2023-01-26T10:19:42.751Z,30.60
2023-01-26T10:22:18.504Z,38.70
2023-01-26T10:24:53.288Z,36.80
2023-01-26T10:27:23.399Z,28.10
2023-01-26T10:29:53.446Z,31.03
2023-01-26T10:32:23.581Z,33.30
2023-01-26T10:34:56.310Z,29.70
2023-01-26T10:37:29.404Z,27.10
2023-01-26T10:40:04.624Z,27.70
2023-01-26T10:42:36.049Z,28.17
2023-01-26T10:45:09.374Z,23.37
2023-01-26T10:47:39.175Z,28.03
2023-01-26T10:50:27.909Z,34.80
2023-01-26T10:53:02.330Z,32.73
2023-01-26T10:55:33.312Z,26.90
2023-01-26T10:58:04.336Z,25.47
2023-01-26T11:00:36.739Z,24.57
2023-01-26T11:03:18.916Z,33.13
2023-01-26T11:06:10.041Z,31.43
2023-01-26T11:08:42.067Z,29.47
2023-01-26T11:11:29.062Z,33.33
2023-01-26T11:14:14.970Z,30.83
2023-01-26T11:16:50.917Z,26.03
2023-01-26T11:19:39.016Z,27.00
2023-01-26T11:22:14.616Z,26.53
2023-01-26T11:24:53.250Z,28.57
2023-01-26T11:27:40.132Z,32.93
2023-01-26T11:30:39.129Z,31.33
2023-01-26T11:33:20.754Z,29.13
2023-01-26T11:35:57.136Z,35.20
2023-01-26T11:38:40.088Z,24.73
2023-01-26T11:41:33.111Z,33.37
2023-01-26T11:44:38.257Z,29.60
2023-01-26T11:47:19.523Z,91.00
2023-01-26T11:50:12.985Z,31.67
2023-01-26T11:52:52.385Z,24.40
2023-01-26T11:55:34.048Z,37.47
2023-01-26T11:58:24.548Z,30.13
2023-01-26T12:00:58.511Z,34.93
2023-01-26T12:03:33.913Z,37.90
2023-01-26T12:06:08.488Z,28.30
2023-01-26T12:08:43.912Z,24.27
2023-01-26T12:11:25.605Z,24.67
2023-01-26T12:14:08.367Z,25.83
2023-01-26T12:16:53.292Z,23.23
2023-01-26T12:19:37.409Z,24.63
2023-01-26T12:22:13.655Z,23.10
2023-01-26T12:27:47.154Z,21.10
2023-01-26T12:30:30.328Z,235.57
2023-01-26T12:33:00.398Z,24.00
2023-01-26T12:35:43.570Z,33.20
2023-01-26T12:38:21.561Z,29.83
2023-01-26T12:41:12.153Z,22.63
2023-01-26T12:43:56.110Z,26.80
2023-01-26T12:46:30.719Z,36.80
2023-01-26T12:49:12.463Z,32.87
2023-01-26T12:51:48.422Z,33.27
2023-01-26T12:54:23.711Z,33.87
2023-01-26T12:56:57.457Z,32.80
2023-01-26T12:59:46.418Z,118.87
2023-01-26T13:02:31.265Z,29.87
2023-01-26T13:05:02.951Z,32.03
2023-01-26T13:07:35.887Z,29.20
2023-01-26T13:10:25.952Z,35.27
2023-01-26T13:13:00.936Z,46.57
2023-01-26T13:15:37.083Z,44.20
2023-01-26T13:18:09.143Z,40.23
2023-01-26T13:20:50.390Z,47.03
2023-01-26T13:23:52.905Z,43.57
2023-01-26T13:26:47.530Z,58.40
2023-01-26T13:29:37.003Z,35.23
2023-01-26T13:32:36.505Z,45.33
2023-01-26T13:35:15.894Z,29.73
2023-01-26T13:37:52.734Z,29.40
2023-01-26T13:40:25.799Z,31.47
2023-01-26T13:43:01.066Z,38.23
2023-01-26T13:45:36.789Z,34.37
2023-01-26T13:48:12.949Z,33.40
2023-01-26T13:50:46.221Z,106.33
2023-01-26T13:53:37.645Z,64.23
2023-01-26T13:56:09.660Z,35.20
2023-01-26T13:58:39.347Z,36.80
2023-01-26T14:01:14.627Z,42.07
2023-01-26T14:03:44.441Z,38.20
2023-01-26T14:06:19.694Z,36.10
2023-01-26T14:08:55.447Z,64.97
2023-01-26T14:11:27.887Z,35.97
2023-01-26T14:14:01.933Z,32.33
2023-01-26T14:16:37.382Z,42.33
2023-01-26T14:19:09.600Z,39.17
2023-01-26T14:21:52.850Z,35.87
2023-01-26T14:24:28.079Z,39.30
2023-01-26T14:27:09.002Z,38.70
2023-01-26T14:29:42.179Z,34.33
2023-01-26T14:32:18.816Z,41.00
2023-01-26T14:34:56.225Z,38.17
2023-01-26T14:37:29.942Z,37.00
2023-01-26T14:40:25.241Z,33.00
2023-01-26T14:42:57.133Z,38.23
2023-01-26T14:45:33.188Z,40.87
2023-01-26T14:48:08.745Z,42.23
2023-01-26T14:50:40.091Z,38.27
2023-01-26T14:53:22.788Z,36.87
2023-01-26T14:55:54.783Z,56.20
2023-01-26T14:58:29.755Z,44.97
2023-01-26T15:01:01.260Z,44.10
2023-01-26T15:03:36.493Z,39.37
2023-01-26T15:06:21.087Z,40.87
2023-01-26T15:09:03.692Z,37.43
2023-01-26T15:11:52.094Z,39.30
2023-01-26T15:14:36.682Z,42.60
2023-01-26T15:17:07.428Z,42.40
2023-01-26T15:19:44.243Z,42.33
2023-01-26T15:22:24.681Z,49.77
2023-01-26T15:25:22.534Z,46.53
2023-01-26T15:27:55.190Z,55.23
2023-01-26T15:30:29.384Z,40.03
2023-01-26T15:32:59.648Z,45.53
2023-01-26T15:35:32.923Z,43.60
2023-01-26T15:38:05.197Z,49.33
2023-01-26T15:40:37.838Z,43.83
2023-01-26T15:43:15.229Z,49.67
2023-01-26T15:45:52.968Z,49.27
2023-01-26T15:48:24.243Z,36.60
2023-01-26T15:50:54.158Z,37.07
2023-01-26T15:53:25.198Z,37.27
2023-01-26T15:55:58.706Z,46.00
2023-01-26T15:58:29.118Z,49.80
2023-01-26T16:00:59.341Z,50.30
2023-01-26T16:03:29.331Z,58.03
2023-01-26T16:05:59.541Z,36.83
2023-01-26T16:08:29.632Z,53.83
2023-01-26T16:11:02.205Z,44.27
2023-01-26T16:13:34.030Z,42.07
2023-01-26T16:16:04.200Z,39.00
2023-01-26T16:18:34.061Z,46.40
2023-01-26T16:21:03.969Z,45.23
2023-01-26T16:23:33.785Z,33.83
2023-01-26T16:26:06.357Z,30.50
2023-01-26T16:28:36.170Z,39.10
2023-01-26T16:31:09.087Z,39.40
2023-01-26T16:33:38.986Z,39.97
2023-01-26T16:36:09.398Z,30.13
2023-01-26T16:38:39.303Z,34.90
2023-01-26T16:41:17.159Z,33.80
2023-01-26T16:43:47.082Z,35.60
2023-01-26T16:46:16.919Z,46.20
2023-01-26T16:48:47.431Z,34.13
2023-01-26T16:51:23.091Z,38.07
2023-01-26T16:53:53.617Z,34.90
2023-01-26T16:56:28.815Z,45.63
2023-01-26T16:58:58.559Z,28.07
2023-01-26T17:01:32.131Z,31.63
2023-01-26T17:04:02.435Z,36.43
2023-01-26T17:06:33.318Z,31.73
2023-01-26T17:09:03.212Z,30.77
2023-01-26T17:11:36.005Z,29.23
2023-01-26T17:14:06.316Z,38.57
2023-01-26T17:16:37.214Z,31.63
2023-01-26T17:19:09.056Z,34.10
2023-01-26T17:21:39.481Z,53.93
2023-01-26T17:24:10.990Z,29.80
2023-01-26T17:26:43.435Z,43.30
2023-01-26T17:29:14.311Z,32.00
2023-01-26T17:31:44.608Z,32.43
2023-01-26T17:34:14.672Z,34.07
2023-01-26T17:36:46.004Z,25.30
2023-01-26T17:39:18.456Z,34.73
2023-01-26T17:41:50.941Z,55.03
2023-01-26T17:44:20.938Z,34.70
2023-01-26T17:46:50.825Z,36.23
2023-01-26T17:49:21.572Z,27.93
2023-01-26T17:51:51.389Z,30.83
2023-01-26T17:54:21.460Z,28.87
2023-01-26T17:56:55.009Z,29.73
2023-01-26T17:59:25.406Z,35.83
2023-01-26T18:01:55.356Z,29.10
2023-01-26T18:04:25.176Z,38.73
2023-01-26T18:06:55.409Z,29.03
2023-01-26T18:09:25.504Z,44.07
2023-01-26T18:11:58.032Z,30.93
2023-01-26T18:14:28.128Z,30.87
2023-01-26T18:16:58.062Z,38.53
2023-01-26T18:19:28.080Z,42.53
2023-01-26T18:21:57.968Z,38.27
2023-01-26T18:24:27.979Z,40.43
2023-01-26T18:27:02.556Z,45.47
2023-01-26T18:29:32.410Z,33.43
2023-01-26T18:32:02.216Z,42.77
2023-01-26T18:34:32.241Z,36.90
2023-01-26T18:37:02.083Z,30.17
2023-01-26T18:39:31.907Z,30.40
2023-01-26T18:42:04.449Z,34.47
2023-01-26T18:44:34.587Z,37.57
2023-01-26T18:47:04.910Z,29.53
2023-01-26T18:49:34.671Z,41.40
2023-01-26T18:52:05.365Z,31.53
2023-01-26T18:54:35.179Z,26.57
2023-01-26T18:57:08.057Z,31.40
2023-01-26T18:59:37.942Z,27.57
2023-01-26T19:02:08.020Z,29.00
2023-01-26T19:04:40.621Z,32.13
2023-01-26T19:07:10.757Z,27.17
2023-01-26T19:09:41.160Z,35.00
2023-01-26T19:12:13.728Z,32.60
2023-01-26T19:14:43.825Z,25.90
2023-01-26T19:17:14.137Z,34.53
2023-01-26T19:19:43.981Z,26.20
2023-01-26T19:22:13.728Z,22.87
2023-01-26T19:24:44.007Z,25.87
2023-01-26T19:27:16.995Z,36.77
2023-01-26T19:29:46.817Z,30.20
2023-01-26T19:32:16.514Z,23.63
2023-01-26T19:34:46.827Z,28.07
2023-01-26T19:37:16.802Z,27.57
2023-01-26T19:39:46.990Z,33.53
2023-01-26T19:42:19.387Z,22.23
2023-01-26T19:44:49.205Z,26.30
2023-01-26T19:47:18.961Z,21.80
2023-01-26T19:49:48.744Z,21.13
2023-01-26T19:52:18.629Z,22.43
2023-01-26T19:54:48.467Z,27.07
2023-01-26T19:57:21.068Z,23.70
2023-01-26T19:59:50.838Z,13.93
2023-01-26T20:02:20.645Z,16.03
2023-01-26T20:04:50.787Z,20.40
2023-01-26T20:07:20.668Z,13.87
2023-01-26T20:09:51.055Z,14.83
2023-01-26T20:12:23.747Z,18.23
2023-01-26T20:14:53.713Z,20.63
2023-01-26T20:17:23.548Z,9.07
2023-01-26T20:19:53.590Z,12.77
2023-01-26T20:22:23.681Z,10.37
2023-01-26T20:24:54.568Z,14.57
2023-01-26T20:27:28.241Z,15.10
2023-01-26T20:29:58.207Z,13.20
2023-01-26T20:32:28.351Z,6.60
2023-01-26T20:34:58.195Z,11.33
2023-01-26T20:37:28.727Z,13.50
2023-01-26T20:39:58.842Z,19.90
2023-01-26T20:42:31.490Z,13.47
2023-01-26T20:45:01.864Z,17.03
2023-01-26T20:47:33.976Z,13.03
2023-01-26T20:50:03.966Z,11.17
2023-01-26T20:52:40.468Z,14.80
2023-01-26T20:55:13.418Z,9.93
2023-01-26T20:57:47.161Z,31.53
2023-01-26T21:00:17.961Z,13.77
2023-01-26T21:02:48.078Z,13.13
2023-01-26T21:05:19.577Z,15.07
2023-01-26T21:07:50.141Z,13.83
2023-01-26T21:10:20.221Z,17.27
2023-01-26T21:12:52.809Z,15.80
2023-01-26T21:15:22.946Z,9.27
2023-01-26T21:17:55.572Z,11.90
2023-01-26T21:23:00.564Z,14.67
2023-01-26T21:25:30.261Z,18.00
2023-01-26T21:28:02.707Z,15.13
2023-01-26T21:30:32.518Z,12.23
2023-01-26T21:33:02.351Z,16.53
2023-01-26T21:35:32.244Z,18.17
2023-01-26T21:38:01.951Z,13.20
2023-01-26T21:40:31.770Z,10.57
2023-01-26T21:43:04.191Z,13.93
2023-01-26T21:45:46.340Z,10.30
2023-01-26T21:48:32.080Z,13.43
2023-01-26T21:51:14.493Z,17.10
2023-01-26T21:53:44.596Z,17.13
2023-01-26T21:56:16.280Z,11.77
2023-01-26T21:59:02.775Z,20.37
2023-01-26T22:01:33.781Z,16.00
2023-01-26T22:04:06.738Z,13.77
2023-01-26T22:06:37.384Z,8.90
2023-01-26T22:09:08.048Z,11.40
2023-01-26T22:11:38.324Z,12.80
2023-01-26T22:14:11.550Z,10.53
2023-01-26T22:16:41.878Z,9.23
2023-01-26T22:19:12.770Z,10.33
2023-01-26T22:21:43.050Z,14.33
2023-01-26T22:24:15.368Z,10.87
2023-01-26T22:26:45.391Z,7.10
2023-01-26T22:29:17.990Z,11.60
2023-01-26T22:31:47.830Z,10.87
2023-01-26T22:34:17.571Z,5.90
2023-01-26T22:36:47.651Z,6.23
2023-01-26T22:39:17.352Z,11.57
2023-01-26T22:41:47.248Z,11.20
2023-01-26T22:44:19.978Z,5.70
2023-01-26T22:46:49.708Z,8.03
2023-01-26T22:49:19.579Z,12.87
2023-01-26T22:51:49.320Z,6.97
2023-01-26T22:54:19.257Z,4.20
2023-01-26T22:56:49.168Z,9.43
2023-01-26T22:59:21.840Z,8.97
2023-01-26T23:01:52.024Z,6.53
2023-01-26T23:04:21.835Z,6.13
2023-01-26T23:06:51.766Z,7.87
2023-01-26T23:09:21.625Z,7.47
2023-01-26T23:11:51.397Z,8.57
2023-01-26T23:14:23.874Z,6.97
2023-01-26T23:16:53.581Z,13.17
2023-01-26T23:19:23.501Z,4.73
2023-01-26T23:21:53.200Z,5.40
2023-01-26T23:24:23.175Z,9.07
2023-01-26T23:26:52.900Z,5.93
2023-01-26T23:29:25.315Z,5.00
2023-01-26T23:31:55.105Z,9.63
2023-01-26T23:34:25.272Z,4.50
2023-01-26T23:36:55.140Z,10.77
2023-01-26T23:39:24.959Z,4.53
2023-01-26T23:41:54.771Z,7.43
2023-01-26T23:44:27.329Z,7.63
2023-01-26T23:46:57.348Z,6.77
2023-01-26T23:49:27.164Z,5.87
2023-01-26T23:51:57.038Z,7.00
2023-01-26T23:54:26.921Z,6.27
2023-01-26T23:56:56.925Z,10.80
2023-01-26T23:59:29.460Z,4.00
